Domov               UVHVVR             MKGP            O straneh              
ZDRAVSTVENO VARSTVO RASTLIN
  MREŽA AGROMET. POSTAJ
 ► PROGNOSTIČNA OBVESTILA
AGROMETEOROLOŠKI PODATKI -
ARSO
OBVLADOVANJE TVEGANJ ZARADI
NEUGODNIH VREMENSKIH RAZMER
  ► NARAVNE NESREČE
  ► SUŠA/MOČA
  ► NAMAKANJE
  ► ŽLED (gozdarstvo)
KARTOGRAFSKI PRIKAZI
SPLETNE POVEZAVE
PROJEKTI IN PUBLIKACIJE

AGROMETEOROLOŠKA MREŽA: VREMENSKE POSTAJE IN FENOLOŠKA OPAZOVANJA

Pregled podatkov za lokacijo BOROVNICA, meteorološka postaja 27469

Pregled senzorjev na lokaciji

ID Ime Zadnja
vrednost
Datum
zadnje
spremembe
Tip
senzorja
1683 Temperatura 2 m (°C) 14,11 °C 12.12.2017 01:00 Generic -40 - +60 °C
1684 Relativna vlaga 2 m (% RH) 59,61 % RH 12.12.2017 01:00 Generic 0 - 100 %
2195 Padavine (mm) 0 mm 12.12.2017 01:00 Generic 0.2 mm
4222 Hitrost vetra (km/h) 41,22 km/h 12.12.2017 01:00 Generic 200 km/h
4223 Smer vetra (°) 62,33 ° 12.12.2017 01:00 Generic 0 - 360

Pregled podatkov zadnjih 24 ur

Zap.
št.
Datum in čas BOROVNICA
Hitrost
vetra
Padavine Relativna
vlaga
2
m
Smer
vetra
Temperatura
2
m
0 12.12.2017 01:00 41,22 0 59,61 62,33 14,11
1 12.12.2017 00:30 33,02 0 59,88 75,96 14,04
2 12.12.2017 00:00 33,31 0 60,93 57,05 13,85
3 11.12.2017 23:30 32,43 0 62,59 68,04 13,75
4 11.12.2017 23:00 27,2 0 62,83 35,52 13,75
5 11.12.2017 22:30 16,36 0 63,2 68,04 13,6
6 11.12.2017 22:00 24,13 0 62,59 57,76 13,72
7 11.12.2017 21:30 22,27 0 64,4 64,18 13,48
8 11.12.2017 21:00 13,58 0 67,86 59,87 13,02
9 11.12.2017 20:30 15,14 0 66,3 84,4 13,19
10 11.12.2017 20:00 17,68 0 66,62 78,86 13,19
11 11.12.2017 19:30 17,09 0 65,81 120,18 13,28
12 11.12.2017 19:00 22,86 0 68,08 109,27 13,06
13 11.12.2017 18:30 24,71 0 66,2 76,31 13,21
14 11.12.2017 18:00 26,37 0 65,2 90,73 13,33
15 11.12.2017 17:30 29,3 0 65,47 77,1 13,24
16 11.12.2017 17:00 20,07 0 67,5 81,67 13,02
17 11.12.2017 16:30 27,55 0 68,38 68,22 12,99
18 11.12.2017 16:00 23,3 0 69,69 79,65 12,82
19 11.12.2017 15:30 24,76 0 70,89 74,73 12,75
20 11.12.2017 15:00 36,63 0 70,94 59,08 12,77
21 11.12.2017 14:30 25,45 0 72,99 70,33 12,55
22 11.12.2017 14:00 21,54 0,2 75,46 79,47 12,21
23 11.12.2017 13:30 24,57 0 76,48 61,19 12,16
24 11.12.2017 13:00 34,19 0 78,88 88 11,72
25 11.12.2017 12:30 33,06 0,4 81,95 74,46 11,21
26 11.12.2017 12:00 36,48 0,4 81,37 64,79 11,04
27 11.12.2017 11:30 32,14 0,6 81,12 77,98 10,89
28 11.12.2017 11:00 39,12 0,2 79,93 65,05 10,84
29 11.12.2017 10:30 30,33 0,2 81,1 76,04 10,48
30 11.12.2017 10:00 26,08 0,4 82,05 71,3 10,13
31 11.12.2017 09:30 38,73 0,2 80,56 80,62 10,31
32 11.12.2017 09:00 27,2 0,2 81,32 72,18 9,96
33 11.12.2017 08:30 25,64 0,2 83,66 73,41 9,35
34 11.12.2017 08:00 18,66 0,4 85,03 83,16 8,84
35 11.12.2017 07:30 14,07 0,2 86,57 88,35 8,6
36 11.12.2017 07:00 9,57 0,4 95,73 73,41 8,21
37 11.12.2017 06:30 7,37 0,4 99,93 103,56 7,59
38 11.12.2017 06:00 7,47 1,2 99,93 85,45 4,42
39 11.12.2017 05:30 2,78 0,8 99,93 278,68 1,73
40 11.12.2017 05:00 1,27 1,6 99,93 252,04 1,49
41 11.12.2017 04:30 0,54 2 99,93 277,63 1,56
42 11.12.2017 04:00 0,49 2,4 99,93 311,12 1,44
43 11.12.2017 03:30 2,39 2,4 99,93 303,47 1,73
44 11.12.2017 03:00 2,54 2,2 99,93 277,54 1,56
45 11.12.2017 02:30 1,71 2,2 99,93 241,23 1,49
46 11.12.2017 02:00 1,66 2,4 99,93 283,6 1,42
© 2011 Ministrstvo za kmetijstvo, gozdarstvo in prehrano. Vse pravice pridržane.